Time;durP1;ratioP1;P1;durP2;ratioP2;P2;SDS_P1;SDS_P2;PMS_P1;PMS_P2;Temp;Humidity;BMP_temperature;BMP_pressure;BME280_temperature;BME280_humidity;BME280_pressure;Samples;Min_cycle;Max_cycle;Signal;HPM_P1;HPM_P2
2022/02/15 00:02:23;;;;;;;11.10;4.47;;;13.70;92.40;;;;;;4976597;28;20057;-66
2022/02/15 00:04:49;;;;;;;13.13;5.10;;;13.80;92.50;;;;;;4976431;28;20026;-64
2022/02/15 00:07:14;;;;;;;11.60;4.47;;;13.70;92.40;;;;;;4976260;28;20134;-66
2022/02/15 00:09:40;;;;;;;13.00;4.53;;;13.80;92.50;;;;;;4976315;28;20038;-70
2022/02/15 00:12:06;;;;;;;13.40;4.00;;;13.70;92.60;;;;;;4976317;28;20027;-68
2022/02/15 00:14:32;;;;;;;11.23;4.43;;;13.70;92.60;;;;;;4976325;28;20018;-68
2022/02/15 00:16:58;;;;;;;9.15;4.18;;;13.70;92.70;;;;;;4976218;28;20026;-72
2022/02/15 00:19:24;;;;;;;16.23;4.88;;;13.70;92.80;;;;;;4976051;28;20133;-69
2022/02/15 00:21:49;;;;;;;12.82;5.18;;;13.70;93.00;;;;;;4976050;28;20531;-67
2022/02/15 00:24:15;;;;;;;13.85;5.07;;;13.80;93.10;;;;;;4976112;28;20431;-67
2022/02/15 00:26:41;;;;;;;15.57;5.25;;;13.80;93.40;;;;;;4976552;28;20046;-71
2022/02/15 00:29:07;;;;;;;19.52;5.85;;;13.80;93.40;;;;;;4976192;28;20034;-70
2022/02/15 00:31:34;;;;;;;12.65;4.65;;;13.80;93.40;;;;;;4976185;28;20034;-67
2022/02/15 00:33:59;;;;;;;12.88;5.57;;;13.80;93.60;;;;;;4975739;28;20101;-69
2022/02/15 00:36:25;;;;;;;15.10;5.47;;;13.80;93.40;;;;;;4976212;28;20476;-70
2022/02/15 00:38:51;;;;;;;10.57;5.25;;;13.80;93.70;;;;;;4976022;28;20035;-71
2022/02/15 00:41:16;;;;;;;16.05;5.43;;;13.80;93.90;;;;;;4991866;28;20046;-68
2022/02/15 00:43:42;;;;;;;14.20;5.65;;;13.70;94.10;;;;;;4995454;28;20034;-66
2022/02/15 00:46:08;;;;;;;15.27;4.88;;;13.70;94.20;;;;;;4995351;28;20023;-65
2022/02/15 00:48:34;;;;;;;15.45;6.05;;;13.70;94.50;;;;;;4977800;28;20037;-68
2022/02/15 00:50:59;;;;;;;15.82;5.55;;;13.70;94.60;;;;;;4995210;28;20027;-66
2022/02/15 00:53:25;;;;;;;14.82;5.75;;;13.70;94.80;;;;;;4995253;28;20026;-68
2022/02/15 00:55:51;;;;;;;17.17;5.57;;;13.70;94.90;;;;;;4995360;28;20026;-67
2022/02/15 00:58:16;;;;;;;14.65;5.70;;;13.70;95.00;;;;;;4995144;28;20022;-66
2022/02/15 01:00:42;;;;;;;16.23;5.78;;;13.70;95.00;;;;;;4995294;28;20101;-66
2022/02/15 01:03:08;;;;;;;17.00;5.47;;;13.70;95.00;;;;;;4977495;28;20026;-66
2022/02/15 01:05:33;;;;;;;11.52;5.28;;;13.70;95.20;;;;;;4995109;28;20109;-65
2022/02/15 01:07:59;;;;;;;15.80;5.57;;;13.70;95.30;;;;;;4994986;28;20023;-67
2022/02/15 01:10:25;;;;;;;17.00;6.00;;;13.70;95.20;;;;;;4994905;28;20018;-67
2022/02/15 01:12:50;;;;;;;13.07;5.57;;;13.70;95.20;;;;;;4995238;28;20105;-68
2022/02/15 01:15:17;;;;;;;14.57;5.97;;;13.70;95.30;;;;;;4994924;28;20054;-68
2022/02/15 01:17:46;;;;;;;14.35;5.68;;;13.70;95.20;;;;;;4994797;28;20034;-69
2022/02/15 01:20:12;;;;;;;15.57;5.90;;;13.70;95.50;;;;;;4994817;28;20026;-73
2022/02/15 01:22:38;;;;;;;18.38;6.00;;;13.70;95.50;;;;;;4994971;28;20030;-71
2022/02/15 01:25:05;;;;;;;16.00;5.50;;;13.70;95.40;;;;;;4977200;28;20435;-70
2022/02/15 01:27:31;;;;;;;16.52;5.75;;;13.70;95.50;;;;;;4994695;28;20027;-70
2022/02/15 01:29:56;;;;;;;16.88;6.07;;;13.70;95.70;;;;;;4994686;28;20026;-68
2022/02/15 01:32:22;;;;;;;12.32;6.00;;;13.70;95.60;;;;;;4994409;28;20050;-70
2022/02/15 01:34:48;;;;;;;15.65;5.63;;;13.80;95.70;;;;;;4994578;28;20022;-70
2022/02/15 01:37:14;;;;;;;18.60;7.05;;;13.70;95.70;;;;;;4994371;28;20388;-72
2022/02/15 01:39:40;;;;;;;13.48;6.22;;;13.80;95.80;;;;;;4994261;28;20046;-68
2022/02/15 01:42:07;;;;;;;14.15;6.00;;;13.80;95.80;;;;;;4994450;28;20026;-72
2022/02/15 01:44:35;;;;;;;14.35;6.18;;;13.80;95.90;;;;;;4976830;28;20084;-71
2022/02/15 01:47:01;;;;;;;19.15;6.45;;;13.80;95.90;;;;;;4993314;28;20015;-68
2022/02/15 01:49:27;;;;;;;20.45;6.45;;;13.80;95.70;;;;;;4994065;28;20026;-65
2022/02/15 01:51:52;;;;;;;15.63;5.75;;;13.80;95.70;;;;;;4994216;28;20482;-72
2022/02/15 01:54:18;;;;;;;14.75;6.32;;;13.80;95.70;;;;;;4994536;28;20030;-70
2022/02/15 01:56:44;;;;;;;15.88;5.80;;;13.90;95.70;;;;;;4994229;28;20047;-69
2022/02/15 01:59:10;;;;;;;17.63;6.22;;;13.80;95.80;;;;;;4994309;28;20060;-69
2022/02/15 02:01:36;;;;;;;19.58;6.60;;;13.90;95.90;;;;;;4994236;28;20077;-70
2022/02/15 02:04:02;;;;;;;21.00;6.72;;;13.80;95.80;;;;;;4993876;28;20077;-69
2022/02/15 02:06:27;;;;;;;21.30;6.80;;;13.80;96.00;;;;;;4994097;28;20026;-70
2022/02/15 02:08:53;;;;;;;18.05;6.57;;;13.80;96.00;;;;;;4994006;28;20503;-70
2022/02/15 02:11:19;;;;;;;16.05;6.22;;;13.80;96.10;;;;;;4993811;28;20038;-70
2022/02/15 02:13:44;;;;;;;18.05;7.28;;;13.80;96.20;;;;;;4994796;28;20033;-67
2022/02/15 02:16:10;;;;;;;14.23;5.55;;;13.80;96.30;;;;;;4994470;28;20030;-69
2022/02/15 02:18:36;;;;;;;15.20;5.97;;;13.80;96.30;;;;;;4999081;28;20030;-70
2022/02/15 02:21:03;;;;;;;17.52;6.53;;;13.80;96.30;;;;;;5003507;28;20022;-67
2022/02/15 02:23:29;;;;;;;21.35;6.75;;;13.80;96.30;;;;;;5001391;28;20585;-67
2022/02/15 02:25:55;;;;;;;13.35;5.85;;;13.90;96.40;;;;;;4994060;28;20046;-67
2022/02/15 02:28:21;;;;;;;14.75;5.63;;;13.90;96.50;;;;;;4994340;28;20065;-68
2022/02/15 02:30:47;;;;;;;15.52;5.70;;;13.80;96.50;;;;;;4994015;28;20022;-67
2022/02/15 02:33:13;;;;;;;18.42;6.05;;;13.80;96.50;;;;;;4994049;28;20042;-69
2022/02/15 02:35:38;;;;;;;17.15;5.95;;;13.80;96.60;;;;;;4993810;28;20372;-70
2022/02/15 02:38:04;;;;;;;14.65;6.10;;;13.80;96.60;;;;;;4994177;28;20452;-69
2022/02/15 02:40:32;;;;;;;14.48;6.28;;;13.90;96.50;;;;;;4994410;28;20042;-70
2022/02/15 02:42:57;;;;;;;14.30;5.85;;;13.90;96.50;;;;;;4993722;28;20037;-70
2022/02/15 02:45:24;;;;;;;17.02;5.90;;;13.80;96.60;;;;;;4993977;28;20026;-67
2022/02/15 02:47:53;;;;;;;17.23;5.95;;;13.80;96.70;;;;;;4993447;28;20089;-66
2022/02/15 02:50:24;;;;;;;11.63;5.50;;;13.80;96.80;;;;;;4993706;28;20069;-69
2022/02/15 02:52:50;;;;;;;23.35;7.72;;;13.80;96.90;;;;;;4993697;28;20480;-71
2022/02/15 02:55:16;;;;;;;20.02;5.85;;;13.80;97.00;;;;;;4993684;28;20022;-71
2022/02/15 02:57:42;;;;;;;16.90;6.03;;;13.80;97.10;;;;;;4994971;28;20472;-72
2022/02/15 03:00:11;;;;;;;18.58;6.65;;;13.80;97.10;;;;;;4997742;28;20022;-71
2022/02/15 03:02:36;;;;;;;16.38;6.47;;;13.80;97.10;;;;;;4979833;28;20027;-72
2022/02/15 03:05:02;;;;;;;16.40;6.45;;;13.80;97.20;;;;;;4997524;28;20077;-69
2022/02/15 03:07:28;;;;;;;17.48;6.68;;;13.80;97.40;;;;;;4997486;28;20049;-72
2022/02/15 03:09:53;;;;;;;19.85;6.18;;;13.80;97.50;;;;;;4997497;28;20027;-74
2022/02/15 03:12:20;;;;;;;16.30;5.93;;;13.70;97.50;;;;;;4997168;28;20018;-73
2022/02/15 03:14:47;;;;;;;12.50;5.55;;;13.70;97.60;;;;;;4997142;28;20034;-71
2022/02/15 03:17:13;;;;;;;19.13;6.57;;;13.80;97.70;;;;;;4997077;28;20073;-70
2022/02/15 03:19:39;;;;;;;17.85;6.22;;;13.80;97.80;;;;;;4997203;28;20023;-73
2022/02/15 03:22:05;;;;;;;15.32;6.05;;;13.80;97.80;;;;;;4997187;28;20029;-73
2022/02/15 03:24:33;;;;;;;18.55;6.53;;;13.80;97.90;;;;;;4997035;28;20029;-73
2022/02/15 03:26:59;;;;;;;12.27;6.18;;;13.80;98.00;;;;;;4979693;28;20042;-72
2022/02/15 03:29:25;;;;;;;18.27;6.85;;;13.80;98.00;;;;;;4996746;28;20121;-72
2022/02/15 03:31:50;;;;;;;19.55;7.05;;;13.80;98.20;;;;;;4997020;28;20093;-74
2022/02/15 03:34:16;;;;;;;19.17;6.15;;;13.80;98.20;;;;;;4996975;28;20053;-70
2022/02/15 03:36:42;;;;;;;12.55;5.28;;;13.80;98.20;;;;;;4979120;28;20031;-72
2022/02/15 03:39:10;;;;;;;17.25;6.65;;;13.80;98.20;;;;;;4996719;28;20093;-69
2022/02/15 03:44:21;;;;;;;14.30;5.50;;;13.90;98.20;;;;;;4997021;28;20037;-72
2022/02/15 03:46:51;;;;;;;24.55;6.22;;;13.90;98.20;;;;;;4996313;28;20030;-72
2022/02/15 03:49:18;;;;;;;18.20;5.78;;;13.90;98.30;;;;;;4996312;28;20109;-68
2022/02/15 03:51:44;;;;;;;18.30;6.07;;;13.90;98.20;;;;;;4996719;28;20539;-68
2022/02/15 03:54:10;;;;;;;17.10;5.95;;;13.90;98.50;;;;;;4996596;28;20053;-71
2022/02/15 03:56:36;;;;;;;21.45;6.53;;;13.90;98.60;;;;;;4996544;28;20042;-69
2022/02/15 03:59:04;;;;;;;17.80;6.70;;;13.80;98.80;;;;;;4996602;28;20023;-71
2022/02/15 04:01:30;;;;;;;16.58;5.80;;;13.80;99.10;;;;;;4996579;28;20031;-66
2022/02/15 04:03:56;;;;;;;21.15;6.00;;;13.90;99.40;;;;;;4996410;28;20029;-66
2022/02/15 04:06:21;;;;;;;18.98;5.30;;;13.90;99.60;;;;;;4996455;28;20026;-72
2022/02/15 04:08:47;;;;;;;18.67;6.20;;;13.90;99.80;;;;;;4994992;28;20456;-72
2022/02/15 04:11:13;;;;;;;29.63;6.90;;;13.90;99.90;;;;;;4996290;28;20064;-70
2022/02/15 04:13:40;;;;;;;22.48;5.18;;;13.90;99.90;;;;;;4996021;28;20117;-66
2022/02/15 04:16:06;;;;;;;18.95;5.90;;;13.90;99.90;;;;;;4995953;28;20015;-66
2022/02/15 04:18:32;;;;;;;15.73;5.15;;;14.00;99.90;;;;;;4995838;28;20057;-66
2022/02/15 04:20:58;;;;;;;14.32;5.30;;;14.00;99.90;;;;;;4996041;28;20026;-71
2022/02/15 04:23:24;;;;;;;16.42;5.50;;;14.10;99.80;;;;;;4995929;28;20041;-71
2022/02/15 04:25:51;;;;;;;17.48;5.30;;;14.00;99.70;;;;;;4995691;28;20026;-67
2022/02/15 04:28:17;;;;;;;17.88;5.75;;;14.10;99.70;;;;;;4995782;28;20050;-65
2022/02/15 04:30:43;;;;;;;17.83;5.18;;;14.10;99.90;;;;;;4995845;28;20022;-68
2022/02/15 04:33:09;;;;;;;17.20;5.38;;;14.10;99.90;;;;;;4995773;28;20031;-73
2022/02/15 04:35:35;;;;;;;19.23;5.50;;;14.10;99.80;;;;;;4995463;28;20038;-66
2022/02/15 04:38:01;;;;;;;18.92;5.50;;;14.10;99.90;;;;;;4995299;28;20081;-66
2022/02/15 04:40:27;;;;;;;19.15;5.93;;;14.20;99.90;;;;;;4995337;28;20154;-71
2022/02/15 04:42:53;;;;;;;22.27;5.15;;;14.20;99.90;;;;;;4995626;28;20530;-67
2022/02/15 04:45:19;;;;;;;19.50;5.40;;;14.20;99.90;;;;;;4995572;28;20022;-71
2022/02/15 04:47:44;;;;;;;20.42;5.45;;;14.20;99.90;;;;;;4995163;28;20471;-73
2022/02/15 04:50:10;;;;;;;21.05;5.72;;;14.20;99.90;;;;;;4977775;28;20062;-72
2022/02/15 04:52:36;;;;;;;21.15;5.45;;;14.20;99.90;;;;;;4995450;28;20128;-73
2022/02/15 04:55:02;;;;;;;20.02;6.43;;;14.20;99.90;;;;;;4995465;28;20030;-73
2022/02/15 04:57:29;;;;;;;16.73;5.70;;;14.20;99.90;;;;;;4995027;28;20053;-73
2022/02/15 04:59:54;;;;;;;18.10;6.03;;;14.20;99.90;;;;;;4995284;28;20022;-72
2022/02/15 05:02:20;;;;;;;18.88;5.88;;;14.20;99.90;;;;;;4995148;28;20031;-74
2022/02/15 05:04:49;;;;;;;18.98;5.93;;;14.20;99.90;;;;;;4995035;28;20426;-74
2022/02/15 05:07:19;;;;;;;15.40;5.85;;;14.10;99.90;;;;;;4995228;28;20105;-73
2022/02/15 05:09:45;;;;;;;20.40;6.68;;;14.10;99.90;;;;;;4994820;28;20054;-72
2022/02/15 05:12:11;;;;;;;17.17;6.50;;;14.00;99.90;;;;;;4995150;28;20081;-72
2022/02/15 05:14:37;;;;;;;15.15;6.38;;;14.00;99.90;;;;;;4994770;28;20019;-74
2022/02/15 05:17:04;;;;;;;16.90;6.20;;;14.00;99.90;;;;;;4977304;28;20038;-75
2022/02/15 05:19:29;;;;;;;19.08;7.05;;;14.00;99.90;;;;;;4994702;28;20023;-74
2022/02/15 05:21:55;;;;;;;20.23;6.90;;;14.00;99.90;;;;;;4994852;28;20458;-74
2022/02/15 05:24:21;;;;;;;17.88;7.38;;;14.00;99.90;;;;;;4994751;28;20030;-73
2022/02/15 05:26:47;;;;;;;24.50;7.20;;;14.00;99.90;;;;;;4994903;28;20026;-73
2022/02/15 05:29:13;;;;;;;22.80;7.45;;;14.00;99.90;;;;;;4994593;28;20022;-72
2022/02/15 05:31:38;;;;;;;25.00;7.80;;;14.00;99.90;;;;;;4994552;28;20045;-74
2022/02/15 05:34:04;;;;;;;22.25;8.00;;;14.00;99.90;;;;;;4994635;28;20027;-74
2022/02/15 05:36:33;;;;;;;16.98;7.43;;;14.00;99.90;;;;;;4976876;28;20040;-73
2022/02/15 05:38:59;;;;;;;24.65;8.55;;;14.00;99.90;;;;;;4994351;28;20014;-74
2022/02/15 05:41:25;;;;;;;24.70;7.88;;;14.10;99.90;;;;;;4994315;28;20070;-67
2022/02/15 05:43:51;;;;;;;20.55;7.20;;;14.10;99.90;;;;;;4994299;28;20040;-72
2022/02/15 05:46:17;;;;;;;21.75;6.93;;;14.10;99.90;;;;;;4994389;28;20101;-74
2022/02/15 05:48:43;;;;;;;25.70;8.40;;;14.10;99.90;;;;;;4994250;28;20030;-73
2022/02/15 05:51:09;;;;;;;23.52;7.90;;;14.20;99.90;;;;;;4994175;28;20364;-75
2022/02/15 05:53:34;;;;;;;21.73;7.35;;;14.20;99.90;;;;;;4977687;28;20417;-73
2022/02/15 05:56:02;;;;;;;28.48;8.15;;;14.20;99.90;;;;;;4996112;28;20046;-73
2022/02/15 05:58:29;;;;;;;20.85;7.57;;;14.30;99.90;;;;;;4994827;28;20388;-73
2022/02/15 06:00:56;;;;;;;25.10;8.02;;;14.30;99.90;;;;;;4976478;28;20030;-70
2022/02/15 06:06:06;;;;;;;;;;;14.30;99.90;;;;;;4994787;28;20057;-73
2022/02/15 06:08:32;;;;;;;22.70;8.07;;;14.40;99.90;;;;;;4993846;28;20362;-69
2022/02/15 06:10:58;;;;;;;26.35;8.95;;;14.40;99.90;;;;;;4976401;28;20422;-74
2022/02/15 06:13:23;;;;;;;25.77;8.55;;;14.30;99.90;;;;;;4993575;28;20097;-74
2022/02/15 06:15:49;;;;;;;32.70;8.35;;;14.40;99.90;;;;;;4993730;28;20109;-71
2022/02/15 06:18:15;;;;;;;24.88;9.70;;;14.30;99.90;;;;;;4994097;28;20045;-73
2022/02/15 06:20:41;;;;;;;17.40;7.00;;;14.30;99.90;;;;;;4993795;28;20018;-68
2022/02/15 06:23:07;;;;;;;18.67;5.93;;;14.30;99.90;;;;;;4993717;28;20550;-70
2022/02/15 06:25:33;;;;;;;18.67;5.30;;;14.20;99.90;;;;;;4993529;28;20034;-71
2022/02/15 06:27:59;;;;;;;14.43;4.68;;;14.10;99.90;;;;;;4993607;28;20019;-68
2022/02/15 06:30:25;;;;;;;23.98;5.35;;;14.00;99.90;;;;;;4976372;28;20446;-73
2022/02/15 06:32:50;;;;;;;16.95;4.60;;;13.90;99.90;;;;;;4993091;28;20022;-74
2022/02/15 06:35:16;;;;;;;18.55;4.70;;;13.80;99.90;;;;;;4993910;28;20038;-73
2022/02/15 06:37:46;;;;;;;19.60;5.00;;;13.80;99.90;;;;;;4993646;28;20479;-71
2022/02/15 06:40:13;;;;;;;18.33;5.32;;;13.70;99.90;;;;;;4993159;28;20054;-68
2022/02/15 06:42:40;;;;;;;22.58;5.18;;;13.70;99.90;;;;;;4993723;28;20049;-67
2022/02/15 06:45:06;;;;;;;14.68;4.32;;;13.60;99.90;;;;;;4993607;28;20010;-66
2022/02/15 06:47:32;;;;;;;12.77;4.22;;;13.60;99.90;;;;;;4993422;28;20035;-66
2022/02/15 06:49:59;;;;;;;21.90;5.70;;;13.60;99.90;;;;;;4993531;28;20022;-68
2022/02/15 06:52:26;;;;;;;17.48;4.28;;;13.60;99.90;;;;;;4993588;28;20110;-66
2022/02/15 06:54:52;;;;;;;15.48;3.88;;;13.60;99.90;;;;;;4993467;28;20022;-67
2022/02/15 06:57:17;;;;;;;11.57;4.07;;;13.50;99.90;;;;;;4993358;28;20035;-67
2022/02/15 06:59:43;;;;;;;18.92;4.53;;;13.50;99.90;;;;;;4993472;28;20150;-73
2022/02/15 07:02:09;;;;;;;15.18;3.92;;;13.60;99.90;;;;;;4993576;28;20034;-73
2022/02/15 07:04:34;;;;;;;16.25;3.78;;;13.60;99.90;;;;;;4976041;28;20390;-74
2022/02/15 07:07:00;;;;;;;13.80;3.40;;;13.70;99.90;;;;;;4993311;28;20392;-70
2022/02/15 07:09:26;;;;;;;12.80;3.30;;;13.70;99.90;;;;;;4993083;28;20392;-69
2022/02/15 07:11:51;;;;;;;13.45;3.08;;;13.80;99.90;;;;;;4993134;28;20033;-71
2022/02/15 07:14:17;;;;;;;18.27;4.75;;;13.90;99.90;;;;;;4993047;28;20468;-71
2022/02/15 07:16:43;;;;;;;10.75;2.97;;;13.90;99.90;;;;;;4993065;28;20034;-73
2022/02/15 07:19:10;;;;;;;16.63;2.95;;;14.00;99.80;;;;;;4975629;28;20019;-70
2022/02/15 07:21:36;;;;;;;8.52;2.50;;;14.00;99.50;;;;;;4993550;28;20372;-72
2022/02/15 07:24:02;;;;;;;12.85;3.15;;;14.10;99.30;;;;;;4992879;28;20507;-71
2022/02/15 07:26:28;;;;;;;14.75;2.97;;;14.20;99.10;;;;;;4992882;28;20026;-73
2022/02/15 07:28:54;;;;;;;13.52;3.47;;;14.20;98.70;;;;;;4992832;28;20030;-66
2022/02/15 07:31:20;;;;;;;12.45;2.83;;;14.20;98.70;;;;;;4993002;28;20379;-67
2022/02/15 07:33:46;;;;;;;13.27;2.92;;;14.20;98.50;;;;;;4975365;28;20027;-74
2022/02/15 07:36:12;;;;;;;15.30;3.15;;;14.30;98.50;;;;;;4992998;28;20026;-70
2022/02/15 07:38:38;;;;;;;14.77;2.70;;;14.30;98.60;;;;;;4992724;28;20031;-73
2022/02/15 07:41:04;;;;;;;15.98;2.50;;;14.40;98.20;;;;;;4992463;28;20042;-74
2022/02/15 07:43:29;;;;;;;8.98;2.20;;;14.40;97.90;;;;;;4992828;28;20034;-71
2022/02/15 07:45:55;;;;;;;10.75;2.55;;;14.40;97.90;;;;;;4996259;28;20109;-74
2022/02/15 07:48:21;;;;;;;11.18;2.58;;;14.40;97.90;;;;;;4996266;28;20030;-74
2022/02/15 07:50:47;;;;;;;8.50;2.00;;;14.40;97.70;;;;;;4996245;28;20391;-72
2022/02/15 07:53:14;;;;;;;13.63;2.90;;;14.30;97.70;;;;;;4996123;28;20033;-72
2022/02/15 07:55:40;;;;;;;12.43;2.83;;;14.30;97.70;;;;;;4996175;28;20027;-74
2022/02/15 07:58:06;;;;;;;13.98;3.30;;;14.20;97.70;;;;;;4995737;28;20433;-74
2022/02/15 08:00:31;;;;;;;9.90;2.30;;;14.30;97.70;;;;;;4979097;28;20030;-74
2022/02/15 08:02:57;;;;;;;10.93;2.65;;;14.30;97.50;;;;;;4979221;28;20030;-73
2022/02/15 08:05:23;;;;;;;17.20;3.83;;;14.30;97.30;;;;;;4995941;28;20029;-73
2022/02/15 08:07:51;;;;;;;15.07;4.75;;;14.30;97.10;;;;;;4996055;28;20038;-73
2022/02/15 08:10:20;;;;;;;13.38;3.30;;;14.30;97.10;;;;;;4996463;28;20479;-71
2022/02/15 08:12:55;;;;;;;13.50;2.92;;;14.40;97.00;;;;;;4996152;28;20022;-74
2022/02/15 08:15:28;;;;;;;10.85;2.42;;;14.40;96.80;;;;;;4996017;28;20096;-75
2022/02/15 08:17:57;;;;;;;12.43;2.70;;;14.40;96.60;;;;;;4996167;28;20034;-73
2022/02/15 08:20:23;;;;;;;12.25;2.50;;;14.40;96.40;;;;;;4996191;28;20026;-75
2022/02/15 08:22:50;;;;;;;9.30;2.58;;;14.40;96.50;;;;;;4996570;28;20069;-73
2022/02/15 08:25:17;;;;;;;16.70;3.25;;;14.40;96.30;;;;;;4995781;28;20101;-73
2022/02/15 08:27:44;;;;;;;14.82;3.00;;;14.40;96.20;;;;;;4996222;28;20015;-73
2022/02/15 08:30:11;;;;;;;15.13;3.83;;;14.40;95.80;;;;;;4995893;28;20054;-73
2022/02/15 08:32:37;;;;;;;12.07;3.50;;;14.50;95.60;;;;;;4995669;28;20548;-71
2022/02/15 08:35:03;;;;;;;13.18;3.10;;;14.50;95.50;;;;;;4995990;28;20035;-74
2022/02/15 08:37:32;;;;;;;8.73;3.10;;;14.60;95.20;;;;;;4995925;28;20133;-74
2022/02/15 08:39:58;;;;;;;11.75;2.75;;;14.70;95.10;;;;;;4974833;28;20050;-68
2022/02/15 08:42:24;;;;;;;9.07;2.35;;;14.70;94.80;;;;;;4976241;28;20035;-69
2022/02/15 08:44:53;;;;;;;11.63;2.42;;;14.70;94.60;;;;;;4975965;28;20041;-67
2022/02/15 08:47:21;;;;;;;13.73;2.67;;;14.80;94.60;;;;;;4975794;28;20102;-69
2022/02/15 08:49:47;;;;;;;10.60;2.47;;;14.80;94.30;;;;;;4975917;28;20067;-72
2022/02/15 08:52:13;;;;;;;9.43;2.83;;;14.90;94.10;;;;;;4975695;28;20022;-68
2022/02/15 08:54:39;;;;;;;7.22;2.20;;;15.10;93.70;;;;;;4975910;28;20026;-68
2022/02/15 08:57:05;;;;;;;9.75;2.70;;;15.20;93.60;;;;;;4974363;28;20046;-70
2022/02/15 08:59:31;;;;;;;9.93;2.80;;;15.30;93.50;;;;;;4975649;28;20026;-69
2022/02/15 09:01:57;;;;;;;12.38;2.70;;;15.40;93.10;;;;;;4975500;28;20029;-71
2022/02/15 09:04:23;;;;;;;12.85;3.10;;;15.50;92.80;;;;;;4975848;28;20106;-73
2022/02/15 09:06:51;;;;;;;8.43;2.75;;;15.60;92.30;;;;;;4975965;28;20051;-69
2022/02/15 09:09:18;;;;;;;14.18;2.38;;;15.70;91.90;;;;;;4975815;28;20106;-72
2022/02/15 09:11:45;;;;;;;13.38;2.60;;;15.70;91.70;;;;;;4975615;28;20333;-69
2022/02/15 09:14:11;;;;;;;15.60;3.15;;;15.70;91.40;;;;;;4975469;28;20114;-67
2022/02/15 09:16:38;;;;;;;13.50;2.22;;;15.70;91.30;;;;;;4974216;28;20117;-71
2022/02/15 09:19:04;;;;;;;9.40;2.58;;;15.60;90.90;;;;;;4975423;28;20023;-69
2022/02/15 09:21:31;;;;;;;12.50;2.17;;;15.50;90.60;;;;;;4975704;28;20429;-71
2022/02/15 09:23:57;;;;;;;12.73;3.03;;;15.50;90.30;;;;;;4976158;28;20027;-69
2022/02/15 09:26:22;;;;;;;9.68;2.20;;;15.50;90.10;;;;;;4980219;28;20408;-69
2022/02/15 09:28:48;;;;;;;10.48;2.63;;;15.40;89.20;;;;;;4977233;28;20118;-69
2022/02/15 09:31:15;;;;;;;11.98;2.45;;;15.40;89.20;;;;;;4976014;28;20480;-70
2022/02/15 09:33:41;;;;;;;11.75;2.88;;;15.50;88.00;;;;;;4975525;28;20054;-68
2022/02/15 09:36:07;;;;;;;15.80;2.85;;;15.50;87.50;;;;;;4976401;28;20034;-69
2022/02/15 09:38:33;;;;;;;12.63;2.67;;;15.60;86.90;;;;;;4975425;28;20031;-69
2022/02/15 09:41:02;;;;;;;15.40;2.40;;;15.60;86.10;;;;;;4988285;28;20124;-68
2022/02/15 09:43:28;;;;;;;15.23;2.97;;;15.50;84.70;;;;;;4977587;28;20030;-67
2022/02/15 09:45:55;;;;;;;12.65;3.42;;;15.60;84.60;;;;;;4994024;28;20033;-68
2022/02/15 09:48:24;;;;;;;9.85;2.42;;;15.60;83.70;;;;;;4994290;28;20069;-67
2022/02/15 09:50:51;;;;;;;12.10;2.83;;;15.60;83.30;;;;;;4993927;28;20365;-68
2022/02/15 09:53:17;;;;;;;19.45;2.47;;;15.70;82.70;;;;;;4994062;28;20029;-68
2022/02/15 09:55:43;;;;;;;10.68;2.42;;;15.80;82.70;;;;;;4994024;28;20037;-68
2022/02/15 09:58:09;;;;;;;15.27;2.85;;;15.80;82.00;;;;;;4976587;28;20038;-67
2022/02/15 10:00:35;;;;;;;13.35;2.40;;;15.80;82.40;;;;;;4994070;28;20030;-69
2022/02/15 10:03:02;;;;;;;14.00;3.05;;;15.80;81.50;;;;;;4993807;28;20022;-69
2022/02/15 10:05:35;;;;;;;12.48;3.08;;;15.80;81.10;;;;;;4993972;28;20376;-70
2022/02/15 10:08:01;;;;;;;17.17;4.40;;;15.80;80.90;;;;;;4992974;28;20026;-68
2022/02/15 10:10:32;;;;;;;12.93;3.20;;;15.90;81.10;;;;;;4994075;28;20106;-70
2022/02/15 10:13:06;;;;;;;13.63;3.20;;;16.00;80.30;;;;;;4976461;28;20357;-72
2022/02/15 10:15:34;;;;;;;15.95;3.70;;;16.00;80.10;;;;;;4993785;28;20022;-73
2022/02/15 10:18:18;;;;;;;12.23;2.78;;;16.00;79.00;;;;;;4993602;28;20557;-74
2022/02/15 10:20:46;;;;;;;14.70;2.67;;;15.90;78.70;;;;;;4993760;28;20046;-76
2022/02/15 10:23:12;;;;;;;11.73;2.97;;;15.90;79.00;;;;;;4993687;28;20029;-72
2022/02/15 10:25:38;;;;;;;14.35;2.50;;;16.00;78.80;;;;;;4993990;28;20026;-73
2022/02/15 10:28:28;;;;;;;14.05;3.20;;;16.00;78.20;;;;;;4994033;28;20553;-73
2022/02/15 10:30:56;;;;;;;18.55;3.00;;;15.90;78.10;;;;;;4976861;28;20026;-70
2022/02/15 10:33:45;;;;;;;10.55;2.70;;;16.00;77.90;;;;;;4993673;28;20022;-73
2022/02/15 10:36:13;;;;;;;10.68;2.70;;;16.10;76.80;;;;;;4993646;28;20026;-69
2022/02/15 10:38:49;;;;;;;16.45;2.72;;;16.10;76.60;;;;;;4993594;28;20538;-71
2022/02/15 10:41:21;;;;;;;9.95;2.35;;;16.20;77.20;;;;;;4972591;28;20575;-70
2022/02/15 10:43:50;;;;;;;14.15;3.25;;;16.10;76.40;;;;;;4974171;28;20034;-70
2022/02/15 10:46:18;;;;;;;13.48;2.90;;;16.10;76.50;;;;;;4972435;28;20030;-71
2022/02/15 10:48:45;;;;;;;16.27;2.50;;;16.20;76.40;;;;;;4973942;28;20039;-72
2022/02/15 10:51:13;;;;;;;19.27;4.07;;;16.50;76.10;;;;;;4973965;28;20081;-72
2022/02/15 10:53:39;;;;;;;14.73;3.60;;;16.60;75.50;;;;;;4973852;28;20038;-71
2022/02/15 10:56:05;;;;;;;12.27;2.90;;;16.60;75.40;;;;;;4973880;28;20035;-69
2022/02/15 10:58:32;;;;;;;13.85;3.08;;;16.40;75.20;;;;;;4973759;28;20019;-69
2022/02/15 11:01:03;;;;;;;19.73;3.50;;;16.30;74.80;;;;;;4973813;28;20022;-75
2022/02/15 11:03:37;;;;;;;15.98;3.17;;;16.30;74.50;;;;;;4973621;28;20033;-70
2022/02/15 11:06:05;;;;;;;15.38;3.28;;;16.20;74.90;;;;;;4973876;28;20361;-70
2022/02/15 11:08:32;;;;;;;15.73;3.05;;;16.10;74.70;;;;;;4973805;28;20098;-68
2022/02/15 11:11:10;;;;;;;14.48;2.55;;;16.00;74.40;;;;;;4973665;28;20031;-69
2022/02/15 11:13:37;;;;;;;10.93;2.40;;;16.00;75.30;;;;;;4973851;28;20399;-67
2022/02/15 11:16:31;;;;;;;12.15;2.47;;;15.90;74.50;;;;;;4973400;28;20027;-73
2022/02/15 11:19:08;;;;;;;14.18;2.97;;;15.90;74.90;;;;;;4973367;28;20047;-74
2022/02/15 11:21:33;;;;;;;16.20;4.00;;;16.00;74.60;;;;;;4977216;28;20031;-65
2022/02/15 11:24:02;;;;;;;12.60;2.67;;;16.00;74.90;;;;;;4977402;28;20089;-68
2022/02/15 11:26:39;;;;;;;11.70;2.95;;;16.10;74.70;;;;;;4977504;28;20027;-72
2022/02/15 11:29:05;;;;;;;13.18;2.53;;;16.10;74.80;;;;;;4977380;28;20380;-73
2022/02/15 11:31:33;;;;;;;12.70;2.80;;;16.20;72.70;;;;;;4977425;28;20041;-70
2022/02/15 11:34:07;;;;;;;16.70;3.28;;;16.30;72.30;;;;;;4977352;28;20027;-73
2022/02/15 11:36:47;;;;;;;19.38;3.28;;;16.40;72.40;;;;;;4977326;28;20356;-67
2022/02/15 11:39:19;;;;;;;12.77;3.25;;;16.30;72.90;;;;;;4976918;28;20023;-68
2022/02/15 11:41:55;;;;;;;15.18;3.80;;;16.30;71.60;;;;;;4996335;28;20042;-72
2022/02/15 11:44:36;;;;;;;12.27;3.13;;;16.20;73.10;;;;;;4978897;28;20030;-69
2022/02/15 11:47:20;;;;;;;14.50;3.17;;;16.10;72.60;;;;;;4996371;28;20040;-71
2022/02/15 11:49:52;;;;;;;;;;;16.10;72.60;;;;;;4996608;28;20021;-70
2022/02/15 11:52:18;;;;;;;18.52;3.40;;;16.10;72.70;;;;;;4996358;28;19978;-75
2022/02/15 11:54:43;;;;;;;13.25;2.90;;;16.10;71.80;;;;;;4996403;28;20030;-72
2022/02/15 11:57:10;;;;;;;14.27;2.95;;;16.10;71.20;;;;;;4996736;28;20048;-69
2022/02/15 11:59:36;;;;;;;17.48;3.80;;;16.10;71.30;;;;;;4996401;28;20033;-74
2022/02/15 12:02:06;;;;;;;20.77;3.35;;;16.00;71.40;;;;;;4996319;28;20046;-71
2022/02/15 12:04:32;;;;;;;13.35;2.85;;;16.00;71.40;;;;;;4996324;28;20392;-71
2022/02/15 12:07:04;;;;;;;13.32;2.88;;;16.00;71.60;;;;;;4978448;28;20022;-73
2022/02/15 12:09:35;;;;;;;18.27;3.08;;;16.00;71.80;;;;;;4996066;28;20095;-73
2022/02/15 12:12:01;;;;;;;19.83;3.60;;;16.00;71.50;;;;;;4995825;28;20423;-72
2022/02/15 12:14:27;;;;;;;14.63;3.35;;;16.00;71.70;;;;;;4995739;28;20026;-74
2022/02/15 12:17:00;;;;;;;15.70;3.13;;;16.00;71.60;;;;;;4995545;28;20075;-73
2022/02/15 12:19:38;;;;;;;16.30;3.40;;;15.90;73.40;;;;;;4995654;28;20030;-72
2022/02/15 12:22:24;;;;;;;13.40;3.47;;;15.90;74.50;;;;;;4995616;28;20018;-72
2022/02/15 12:24:53;;;;;;;18.20;3.75;;;16.00;75.60;;;;;;4993456;28;20030;-74
2022/02/15 12:27:19;;;;;;;15.82;3.45;;;16.20;76.10;;;;;;4995400;28;20491;-71
2022/02/15 12:29:50;;;;;;;16.55;3.38;;;16.20;76.00;;;;;;4994460;28;20391;-73
2022/02/15 12:32:22;;;;;;;15.32;3.28;;;16.50;75.30;;;;;;4995313;28;20065;-72
2022/02/15 12:34:48;;;;;;;14.10;2.95;;;16.70;73.90;;;;;;4995422;28;20038;-70
2022/02/15 12:37:24;;;;;;;15.55;3.53;;;16.70;72.60;;;;;;4995523;28;20042;-74
2022/02/15 12:39:56;;;;;;;14.00;3.55;;;16.70;72.30;;;;;;4995204;28;20046;-71
2022/02/15 12:42:23;;;;;;;14.80;3.40;;;16.70;70.90;;;;;;4977719;28;20066;-72
2022/02/15 12:45:04;;;;;;;16.75;3.70;;;16.80;70.60;;;;;;4995639;28;20100;-74